Terminal Aerodrome Forecast
Issued by NWS

Current Version | Previous Version | Text Only | Print | Product List | Glossary On
Versions: 1 2 3 4 5 6 7 8 9 10 11 12 13 14 15 16 17 18 19 20 21
000 FTUS41 KOKX 232300 TAFHPN TAF KHPN 232327Z 2400/2424 21008KT P6SM FEW040 SCT150 BKN250 TEMPO 2400/2402 5SM TSRA SCT025 BKN040CB FM240200 25005KT 5SM SHRA BR VCTS BKN040CB OVC120 FM240700 33007KT P6SM SCT040 OVC120 FM241300 34010G18KT P6SM SCT050 SCT150 BKN250 FM242100 33008KT P6SM FEW050 BKN250 AMD NOT SKED=

USA.gov is the U.S. government's official web portal to all federal, state and local government web resources and services.